Terminal Aerodrome Forecast
Issued by NWS Melbourne, FL

Home | Current Version | Previous Version | Text Only | Print | Product List | Glossary On
Versions: 1 2 3 4 5 6 7 8 9 10 11 12 13 14 15 16 17 18 19 20 21 22 23 24
000
FTUS42 KMLB 221142
TAFMCO
TAF
KMCO 221142Z 2212/2312 19008KT P6SM SCT010 BKN020 BKN060
      WS015/22032KT
     FM221400 19015G25KT P6SM SCT015 BKN035
     FM222200 21020G30KT P6SM VCTS BKN035CB
      TEMPO 2223/2301 25030G40KT 2SM +TSRA BKN015CB
     FM230100 23015G25KT P6SM -RA VCTS BKN035CB
     FM230600 22015KT P6SM BKN035=

USA.gov is the U.S. government's official web portal to all federal, state and local government web resources and services.